Fdny Mo 24 — WDG3978 — position and weather

sailwx.info

Track history (hours):
 
Tides and Currents Weather Stations Pressure Air Temp Water Temp Dewpoint Dewpoint Depression Visibility Wind Speed Wind Dir Waves Ship Positions

Fdny Mo 24

Owner: NEW YORK CITY FIRE DEPT, BROOKLYN, NY. More information available from US FCC via Universal Licensing System.

Last reported at 2018-Aug-13 18:40 UTC. Time now 2018-Aug-14 07:04 UTC.
Position N 40°45' W 073°58'.

Length 11 m.

Type: Law enforcement. MMSI: 367531660.

Date/timePositionNaut miles runAvg speedWind from/ knotsBaromVisibWave heightAir tempDewpointWater temp
2018-Aug-13 18:40N 40°45' W 073°58'530.0
2018-Aug-13 18:30N 40°41' W 074°01'6 3.3
2018-Aug-13 16:49N 40°36' W 074°03'7 4.3
2018-Aug-13 15:04N 40°42' W 073°58'0 0.6
2018-Aug-13 15:01N 40°42' W 073°58'  
2018-Aug-07 17:19N 40°45' W 073°57'6 6.2
2018-Aug-07 16:22N 40°40' W 074°01'4 8.3
2018-Aug-07 15:51N 40°36' W 074°02'3 9.7
2018-Aug-07 15:30N 40°40' W 074°02'4 8.1
2018-Aug-07 15:01N 40°42' W 073°58'0 0.0
2018-Aug-07 14:31N 40°42' W 073°58'  
Track history (hours):
 
Tides and Currents Weather Stations Pressure Air Temp Water Temp Dewpoint Dewpoint Depression Visibility Wind Speed Wind Dir Waves Ship Positions

Fdny Mo 24

Owner: NEW YORK CITY FIRE DEPT, BROOKLYN, NY. More information available from US FCC via Universal Licensing System.

Last reported at 2018-Aug-13 18:40 UTC. Time now 2018-Aug-14 07:04 UTC.
Position N 40°45' W 073°58'.

Length 11 m.

Type: Law enforcement. MMSI: 367531660.

Date/timePositionNaut miles runAvg speedWind from/ knotsBaromVisibWave heightAir tempDewpointWater temp
2018-Aug-13 18:40N 40°45' W 073°58'530.0
2018-Aug-13 18:30N 40°41' W 074°01'6 3.3
2018-Aug-13 16:49N 40°36' W 074°03'7 4.3
2018-Aug-13 15:04N 40°42' W 073°58'0 0.6
2018-Aug-13 15:01N 40°42' W 073°58'  
2018-Aug-07 17:19N 40°45' W 073°57'6 6.2
2018-Aug-07 16:22N 40°40' W 074°01'4 8.3
2018-Aug-07 15:51N 40°36' W 074°02'3 9.7
2018-Aug-07 15:30N 40°40' W 074°02'4 8.1
2018-Aug-07 15:01N 40°42' W 073°58'0 0.0
2018-Aug-07 14:31N 40°42' W 073°58'  

Dump ship's entire track history